sensor_id;sensor_type;location;lat;lon;timestamp;pressure;altitude;pressure_sealevel;temperature;humidity
70968;BME280;58629;48.808;8.820;2023-06-04T00:02:16;97097.44;;;12.57;79.21
70968;BME280;58629;48.808;8.820;2023-06-04T00:04:41;97103.69;;;12.51;79.85
70968;BME280;58629;48.808;8.820;2023-06-04T00:07:06;97104.53;;;12.48;80.02
70968;BME280;58629;48.808;8.820;2023-06-04T00:09:31;97109.31;;;12.53;80.00
70968;BME280;58629;48.808;8.820;2023-06-04T00:11:57;97104.09;;;12.49;79.23
70968;BME280;58629;48.808;8.820;2023-06-04T00:14:22;97098.38;;;12.51;79.36
70968;BME280;58629;48.808;8.820;2023-06-04T00:16:48;97103.13;;;12.43;78.65
70968;BME280;58629;48.808;8.820;2023-06-04T00:19:13;97103.22;;;12.40;79.31
70968;BME280;58629;48.808;8.820;2023-06-04T00:21:40;97102.88;;;12.38;79.10
70968;BME280;58629;48.808;8.820;2023-06-04T00:24:05;97097.91;;;12.40;79.31
70968;BME280;58629;48.808;8.820;2023-06-04T00:26:31;97100.63;;;12.36;79.62
70968;BME280;58629;48.808;8.820;2023-06-04T00:28:56;97100.50;;;12.27;79.43
70968;BME280;58629;48.808;8.820;2023-06-04T00:31:21;97101.91;;;12.32;80.21
70968;BME280;58629;48.808;8.820;2023-06-04T00:33:47;97106.81;;;12.17;79.52
70968;BME280;58629;48.808;8.820;2023-06-04T00:36:13;97097.75;;;12.14;80.02
70968;BME280;58629;48.808;8.820;2023-06-04T00:38:38;97105.81;;;12.11;80.69
70968;BME280;58629;48.808;8.820;2023-06-04T00:41:03;97104.72;;;12.08;80.86
70968;BME280;58629;48.808;8.820;2023-06-04T00:43:29;97101.09;;;12.02;80.80
70968;BME280;58629;48.808;8.820;2023-06-04T00:45:56;97098.53;;;11.99;81.54
70968;BME280;58629;48.808;8.820;2023-06-04T00:48:23;97108.13;;;11.93;80.90
70968;BME280;58629;48.808;8.820;2023-06-04T00:50:48;97109.75;;;11.90;81.46
70968;BME280;58629;48.808;8.820;2023-06-04T00:53:14;97109.88;;;11.83;81.46
70968;BME280;58629;48.808;8.820;2023-06-04T00:55:40;97115.19;;;11.83;81.98
70968;BME280;58629;48.808;8.820;2023-06-04T00:58:06;97109.22;;;11.79;81.00
70968;BME280;58629;48.808;8.820;2023-06-04T01:00:32;97109.97;;;11.80;80.99
70968;BME280;58629;48.808;8.820;2023-06-04T01:02:58;97113.53;;;11.73;81.03
70968;BME280;58629;48.808;8.820;2023-06-04T01:05:39;97111.63;;;11.74;81.72
70968;BME280;58629;48.808;8.820;2023-06-04T01:08:05;97122.00;;;11.65;81.65
70968;BME280;58629;48.808;8.820;2023-06-04T01:10:34;97117.53;;;11.62;81.96
70968;BME280;58629;48.808;8.820;2023-06-04T01:12:59;97119.03;;;11.63;81.68
70968;BME280;58629;48.808;8.820;2023-06-04T01:15:25;97114.72;;;11.53;80.46
70968;BME280;58629;48.808;8.820;2023-06-04T01:17:54;97117.69;;;11.39;81.67
70968;BME280;58629;48.808;8.820;2023-06-04T01:20:27;97123.38;;;11.37;82.39
70968;BME280;58629;48.808;8.820;2023-06-04T01:23:10;97130.63;;;11.17;83.05
70968;BME280;58629;48.808;8.820;2023-06-04T01:25:40;97119.44;;;11.25;82.62
70968;BME280;58629;48.808;8.820;2023-06-04T01:28:10;97124.06;;;11.21;82.33
70968;BME280;58629;48.808;8.820;2023-06-04T01:30:37;97124.03;;;11.25;82.77
70968;BME280;58629;48.808;8.820;2023-06-04T01:33:12;97118.44;;;11.19;83.56
70968;BME280;58629;48.808;8.820;2023-06-04T01:35:38;97121.44;;;11.21;82.69
70968;BME280;58629;48.808;8.820;2023-06-04T01:38:03;97120.31;;;11.03;82.78
70968;BME280;58629;48.808;8.820;2023-06-04T01:40:29;97124.34;;;11.07;83.23
70968;BME280;58629;48.808;8.820;2023-06-04T01:42:54;97123.06;;;10.96;82.75
70968;BME280;58629;48.808;8.820;2023-06-04T01:45:21;97125.88;;;10.89;82.91
70968;BME280;58629;48.808;8.820;2023-06-04T01:47:47;97119.34;;;10.93;83.29
70968;BME280;58629;48.808;8.820;2023-06-04T01:50:12;97123.16;;;10.92;82.82
70968;BME280;58629;48.808;8.820;2023-06-04T01:52:38;97119.97;;;10.81;83.07
70968;BME280;58629;48.808;8.820;2023-06-04T01:55:05;97119.28;;;10.77;83.58
70968;BME280;58629;48.808;8.820;2023-06-04T01:57:30;97121.97;;;10.74;83.69
70968;BME280;58629;48.808;8.820;2023-06-04T01:59:56;97121.28;;;10.70;83.88
70968;BME280;58629;48.808;8.820;2023-06-04T02:02:21;97117.03;;;10.76;84.26
70968;BME280;58629;48.808;8.820;2023-06-04T02:04:46;97115.13;;;10.76;84.23
70968;BME280;58629;48.808;8.820;2023-06-04T02:07:12;97117.78;;;10.76;84.43
70968;BME280;58629;48.808;8.820;2023-06-04T02:09:43;97121.97;;;10.74;84.38
70968;BME280;58629;48.808;8.820;2023-06-04T02:12:08;97119.31;;;10.74;84.50
70968;BME280;58629;48.808;8.820;2023-06-04T02:14:33;97122.31;;;10.76;84.15
70968;BME280;58629;48.808;8.820;2023-06-04T02:16:58;97123.22;;;10.69;83.73
70968;BME280;58629;48.808;8.820;2023-06-04T02:19:24;97127.41;;;10.67;84.44
70968;BME280;58629;48.808;8.820;2023-06-04T02:21:51;97135.34;;;10.67;84.35
70968;BME280;58629;48.808;8.820;2023-06-04T02:24:16;97135.00;;;10.65;84.14
70968;BME280;58629;48.808;8.820;2023-06-04T02:26:42;97138.06;;;10.63;84.80
70968;BME280;58629;48.808;8.820;2023-06-04T02:29:07;97134.34;;;10.61;84.28
70968;BME280;58629;48.808;8.820;2023-06-04T02:31:32;97137.81;;;10.58;84.58
70968;BME280;58629;48.808;8.820;2023-06-04T02:33:57;97134.69;;;10.63;84.79
70968;BME280;58629;48.808;8.820;2023-06-04T02:36:23;97139.69;;;10.57;85.12
70968;BME280;58629;48.808;8.820;2023-06-04T02:38:48;97128.41;;;10.53;85.32
70968;BME280;58629;48.808;8.820;2023-06-04T02:41:13;97127.38;;;10.47;85.19
70968;BME280;58629;48.808;8.820;2023-06-04T02:43:38;97137.91;;;10.51;84.81
70968;BME280;58629;48.808;8.820;2023-06-04T02:46:04;97137.00;;;10.37;84.23
70968;BME280;58629;48.808;8.820;2023-06-04T02:48:31;97127.22;;;10.34;84.94
70968;BME280;58629;48.808;8.820;2023-06-04T02:50:56;97127.63;;;10.33;85.34
70968;BME280;58629;48.808;8.820;2023-06-04T02:53:22;97137.34;;;10.39;85.47
70968;BME280;58629;48.808;8.820;2023-06-04T02:55:49;97132.91;;;10.33;85.24
70968;BME280;58629;48.808;8.820;2023-06-04T02:58:15;97131.09;;;10.30;85.79
70968;BME280;58629;48.808;8.820;2023-06-04T03:00:41;97136.03;;;10.28;85.34
70968;BME280;58629;48.808;8.820;2023-06-04T03:03:06;97142.59;;;10.20;85.73
70968;BME280;58629;48.808;8.820;2023-06-04T03:05:32;97144.09;;;10.21;85.32
70968;BME280;58629;48.808;8.820;2023-06-04T03:07:58;97141.09;;;10.19;84.99
70968;BME280;58629;48.808;8.820;2023-06-04T03:10:24;97146.31;;;10.22;85.27
70968;BME280;58629;48.808;8.820;2023-06-04T03:12:50;97154.31;;;10.19;85.17
70968;BME280;58629;48.808;8.820;2023-06-04T03:15:15;97150.19;;;10.18;85.13
70968;BME280;58629;48.808;8.820;2023-06-04T03:17:41;97149.44;;;10.17;84.87
70968;BME280;58629;48.808;8.820;2023-06-04T03:20:07;97152.44;;;10.19;85.21
70968;BME280;58629;48.808;8.820;2023-06-04T03:22:33;97151.31;;;10.17;85.47
70968;BME280;58629;48.808;8.820;2023-06-04T03:25:01;97151.69;;;10.19;85.69
70968;BME280;58629;48.808;8.820;2023-06-04T03:27:26;97155.94;;;10.13;85.17
70968;BME280;58629;48.808;8.820;2023-06-04T03:29:51;97166.53;;;10.09;84.90
70968;BME280;58629;48.808;8.820;2023-06-04T03:32:17;97166.28;;;10.00;85.40
70968;BME280;58629;48.808;8.820;2023-06-04T03:34:42;97158.66;;;10.06;85.78
70968;BME280;58629;48.808;8.820;2023-06-04T03:37:08;97155.69;;;10.00;85.64
70968;BME280;58629;48.808;8.820;2023-06-04T03:39:33;97159.22;;;9.94;85.00
70968;BME280;58629;48.808;8.820;2023-06-04T03:41:58;97163.41;;;9.91;86.00
70968;BME280;58629;48.808;8.820;2023-06-04T03:44:24;97154.69;;;9.94;85.66
70968;BME280;58629;48.808;8.820;2023-06-04T03:46:49;97154.34;;;9.92;85.67
70968;BME280;58629;48.808;8.820;2023-06-04T03:49:14;97158.88;;;9.92;85.95
70968;BME280;58629;48.808;8.820;2023-06-04T03:51:42;97164.09;;;9.95;85.85
70968;BME280;58629;48.808;8.820;2023-06-04T03:54:07;97154.00;;;9.90;86.10
70968;BME280;58629;48.808;8.820;2023-06-04T03:56:33;97157.38;;;9.91;85.64
70968;BME280;58629;48.808;8.820;2023-06-04T03:58:58;97160.34;;;9.93;85.96
70968;BME280;58629;48.808;8.820;2023-06-04T04:01:23;97162.63;;;9.94;86.26
70968;BME280;58629;48.808;8.820;2023-06-04T04:03:50;97170.91;;;9.96;86.33
70968;BME280;58629;48.808;8.820;2023-06-04T04:06:16;97163.00;;;9.93;85.54
70968;BME280;58629;48.808;8.820;2023-06-04T04:08:41;97162.28;;;9.92;86.44
70968;BME280;58629;48.808;8.820;2023-06-04T04:11:11;97173.59;;;9.93;86.61
70968;BME280;58629;48.808;8.820;2023-06-04T04:13:36;97172.44;;;9.94;86.26
70968;BME280;58629;48.808;8.820;2023-06-04T04:16:01;97180.53;;;9.83;85.50
70968;BME280;58629;48.808;8.820;2023-06-04T04:18:27;97171.13;;;9.79;86.61
70968;BME280;58629;48.808;8.820;2023-06-04T04:20:52;97172.66;;;9.80;86.78
70968;BME280;58629;48.808;8.820;2023-06-04T04:23:17;97180.63;;;9.76;86.22
70968;BME280;58629;48.808;8.820;2023-06-04T04:25:43;97180.00;;;9.65;86.91
70968;BME280;58629;48.808;8.820;2023-06-04T04:28:13;97178.47;;;9.68;87.95
70968;BME280;58629;48.808;8.820;2023-06-04T04:30:39;97183.28;;;9.76;88.04
70968;BME280;58629;48.808;8.820;2023-06-04T04:33:05;97185.88;;;9.80;87.98
70968;BME280;58629;48.808;8.820;2023-06-04T04:35:31;97189.22;;;9.84;88.07
70968;BME280;58629;48.808;8.820;2023-06-04T04:38:01;97187.97;;;9.92;87.80
70968;BME280;58629;48.808;8.820;2023-06-04T04:40:28;97192.06;;;9.96;87.71
70968;BME280;58629;48.808;8.820;2023-06-04T04:42:54;97192.75;;;10.00;87.43
70968;BME280;58629;48.808;8.820;2023-06-04T04:45:19;97198.66;;;10.11;87.21
70968;BME280;58629;48.808;8.820;2023-06-04T04:47:45;97198.53;;;10.22;86.97
70968;BME280;58629;48.808;8.820;2023-06-04T04:50:11;97196.16;;;10.27;86.44
70968;BME280;58629;48.808;8.820;2023-06-04T04:52:37;97195.97;;;10.38;86.11
70968;BME280;58629;48.808;8.820;2023-06-04T04:55:02;97192.06;;;10.46;86.08
70968;BME280;58629;48.808;8.820;2023-06-04T04:57:28;97190.47;;;10.52;86.13
70968;BME280;58629;48.808;8.820;2023-06-04T04:59:53;97191.78;;;10.64;86.25
70968;BME280;58629;48.808;8.820;2023-06-04T05:02:18;97184.06;;;10.73;85.83
70968;BME280;58629;48.808;8.820;2023-06-04T05:04:44;97194.88;;;10.82;85.45
70968;BME280;58629;48.808;8.820;2023-06-04T05:07:09;97192.38;;;10.94;84.86
70968;BME280;58629;48.808;8.820;2023-06-04T05:09:34;97196.91;;;10.94;84.67
70968;BME280;58629;48.808;8.820;2023-06-04T05:12:00;97194.78;;;11.08;86.05
70968;BME280;58629;48.808;8.820;2023-06-04T05:14:25;97196.81;;;11.20;84.77
70968;BME280;58629;48.808;8.820;2023-06-04T05:16:50;97197.41;;;11.28;84.58
70968;BME280;58629;48.808;8.820;2023-06-04T05:19:16;97200.66;;;11.35;83.70
70968;BME280;58629;48.808;8.820;2023-06-04T05:21:42;97202.72;;;11.48;83.72
70968;BME280;58629;48.808;8.820;2023-06-04T05:24:08;97207.81;;;11.58;83.10
70968;BME280;58629;48.808;8.820;2023-06-04T05:26:34;97213.25;;;11.71;82.62
70968;BME280;58629;48.808;8.820;2023-06-04T05:28:59;97217.44;;;11.88;82.47
70968;BME280;58629;48.808;8.820;2023-06-04T05:31:25;97217.78;;;11.90;82.92
70968;BME280;58629;48.808;8.820;2023-06-04T05:33:53;97218.44;;;11.94;83.25
70968;BME280;58629;48.808;8.820;2023-06-04T05:36:19;97222.47;;;12.18;81.58
70968;BME280;58629;48.808;8.820;2023-06-04T05:38:44;97219.75;;;12.38;81.65
70968;BME280;58629;48.808;8.820;2023-06-04T05:41:09;97219.31;;;12.55;80.34
70968;BME280;58629;48.808;8.820;2023-06-04T05:43:36;97219.38;;;12.68;79.58
70968;BME280;58629;48.808;8.820;2023-06-04T05:46:01;97223.09;;;12.86;78.60
70968;BME280;58629;48.808;8.820;2023-06-04T05:48:26;97218.09;;;13.04;77.14
70968;BME280;58629;48.808;8.820;2023-06-04T05:50:52;97213.16;;;13.19;72.59
70968;BME280;58629;48.808;8.820;2023-06-04T05:53:17;97213.94;;;13.32;71.00
70968;BME280;58629;48.808;8.820;2023-06-04T05:55:42;97218.66;;;13.53;71.83
70968;BME280;58629;48.808;8.820;2023-06-04T05:58:08;97225.50;;;13.67;67.82
70968;BME280;58629;48.808;8.820;2023-06-04T06:00:33;97224.69;;;13.82;65.77
70968;BME280;58629;48.808;8.820;2023-06-04T06:02:58;97227.97;;;13.99;64.41
70968;BME280;58629;48.808;8.820;2023-06-04T06:05:24;97221.28;;;14.20;64.47
70968;BME280;58629;48.808;8.820;2023-06-04T06:07:49;97230.03;;;14.33;64.62
70968;BME280;58629;48.808;8.820;2023-06-04T06:10:14;97227.25;;;14.49;64.54
70968;BME280;58629;48.808;8.820;2023-06-04T06:12:40;97231.94;;;14.57;64.90
70968;BME280;58629;48.808;8.820;2023-06-04T06:15:06;97226.47;;;14.73;62.89
70968;BME280;58629;48.808;8.820;2023-06-04T06:17:32;97226.06;;;14.97;63.12
70968;BME280;58629;48.808;8.820;2023-06-04T06:19:58;97228.25;;;15.11;62.04
70968;BME280;58629;48.808;8.820;2023-06-04T06:22:23;97229.88;;;15.30;61.56
70968;BME280;58629;48.808;8.820;2023-06-04T06:24:48;97234.47;;;15.29;59.83
70968;BME280;58629;48.808;8.820;2023-06-04T06:27:14;97236.72;;;15.31;59.48
70968;BME280;58629;48.808;8.820;2023-06-04T06:29:40;97236.91;;;15.58;59.53
70968;BME280;58629;48.808;8.820;2023-06-04T06:32:07;97230.34;;;15.81;58.81
70968;BME280;58629;48.808;8.820;2023-06-04T06:34:32;97231.56;;;15.89;57.25
70968;BME280;58629;48.808;8.820;2023-06-04T06:36:57;97239.38;;;16.05;56.42
70968;BME280;58629;48.808;8.820;2023-06-04T06:39:23;97247.00;;;16.24;56.41
70968;BME280;58629;48.808;8.820;2023-06-04T06:41:48;97239.19;;;16.30;53.96
70968;BME280;58629;48.808;8.820;2023-06-04T06:44:13;97234.00;;;16.44;54.41
70968;BME280;58629;48.808;8.820;2023-06-04T06:46:38;97239.59;;;16.68;54.71
70968;BME280;58629;48.808;8.820;2023-06-04T06:49:04;97231.75;;;16.83;56.28
70968;BME280;58629;48.808;8.820;2023-06-04T06:51:29;97231.47;;;16.99;53.79
70968;BME280;58629;48.808;8.820;2023-06-04T06:53:55;97233.09;;;17.23;54.02
70968;BME280;58629;48.808;8.820;2023-06-04T06:56:20;97230.56;;;17.29;52.13
70968;BME280;58629;48.808;8.820;2023-06-04T06:58:46;97232.19;;;17.45;52.32
70968;BME280;58629;48.808;8.820;2023-06-04T07:01:12;97235.59;;;17.63;51.92
70968;BME280;58629;48.808;8.820;2023-06-04T07:03:37;97239.03;;;17.64;52.35
70968;BME280;58629;48.808;8.820;2023-06-04T07:06:05;97230.81;;;17.67;50.37
70968;BME280;58629;48.808;8.820;2023-06-04T07:08:31;97236.00;;;17.80;51.29
70968;BME280;58629;48.808;8.820;2023-06-04T07:10:56;97225.19;;;18.07;51.46
70968;BME280;58629;48.808;8.820;2023-06-04T07:13:22;97234.56;;;18.11;50.44
70968;BME280;58629;48.808;8.820;2023-06-04T07:15:47;97243.22;;;18.06;51.05
70968;BME280;58629;48.808;8.820;2023-06-04T07:18:12;97240.59;;;18.30;50.04
70968;BME280;58629;48.808;8.820;2023-06-04T07:20:38;97242.91;;;18.04;51.15
70968;BME280;58629;48.808;8.820;2023-06-04T07:23:03;97244.88;;;18.37;49.98
70968;BME280;58629;48.808;8.820;2023-06-04T07:25:29;97245.19;;;18.71;49.41
70968;BME280;58629;48.808;8.820;2023-06-04T07:27:54;97241.56;;;18.98;49.87
70968;BME280;58629;48.808;8.820;2023-06-04T07:30:23;97238.41;;;18.99;49.90
70968;BME280;58629;48.808;8.820;2023-06-04T07:32:48;97240.13;;;18.88;50.75
70968;BME280;58629;48.808;8.820;2023-06-04T07:35:14;97241.06;;;18.85;51.69
70968;BME280;58629;48.808;8.820;2023-06-04T07:37:39;97238.13;;;18.74;50.76
70968;BME280;58629;48.808;8.820;2023-06-04T07:40:05;97236.44;;;18.62;49.42
70968;BME280;58629;48.808;8.820;2023-06-04T07:42:30;97242.25;;;18.60;49.66
70968;BME280;58629;48.808;8.820;2023-06-04T07:44:56;97240.38;;;18.52;50.42
70968;BME280;58629;48.808;8.820;2023-06-04T07:47:21;97235.31;;;18.54;49.86
70968;BME280;58629;48.808;8.820;2023-06-04T07:49:47;97231.88;;;18.77;48.81
70968;BME280;58629;48.808;8.820;2023-06-04T07:52:12;97234.44;;;19.10;47.92
70968;BME280;58629;48.808;8.820;2023-06-04T07:54:38;97234.94;;;19.46;47.03
70968;BME280;58629;48.808;8.820;2023-06-04T07:57:06;97237.63;;;19.75;46.96
70968;BME280;58629;48.808;8.820;2023-06-04T07:59:31;97229.72;;;20.01;45.88
70968;BME280;58629;48.808;8.820;2023-06-04T08:01:56;97232.25;;;19.90;45.25
70968;BME280;58629;48.808;8.820;2023-06-04T08:04:22;97225.91;;;20.08;46.84
70968;BME280;58629;48.808;8.820;2023-06-04T08:06:47;97224.03;;;20.28;46.55
70968;BME280;58629;48.808;8.820;2023-06-04T08:09:12;97218.13;;;20.44;44.79
70968;BME280;58629;48.808;8.820;2023-06-04T08:11:39;97221.13;;;20.66;46.36
70968;BME280;58629;48.808;8.820;2023-06-04T08:14:04;97216.34;;;20.96;46.05
70968;BME280;58629;48.808;8.820;2023-06-04T08:16:31;97213.91;;;20.98;45.30
70968;BME280;58629;48.808;8.820;2023-06-04T08:18:56;97211.34;;;21.29;44.47
70968;BME280;58629;48.808;8.820;2023-06-04T08:21:25;97216.41;;;21.47;43.54
70968;BME280;58629;48.808;8.820;2023-06-04T08:23:51;97217.91;;;21.48;42.99
70968;BME280;58629;48.808;8.820;2023-06-04T08:26:16;97225.19;;;21.68;43.19
70968;BME280;58629;48.808;8.820;2023-06-04T08:28:42;97222.28;;;21.72;43.02
70968;BME280;58629;48.808;8.820;2023-06-04T08:31:08;97222.47;;;21.94;42.85
70968;BME280;58629;48.808;8.820;2023-06-04T08:33:33;97225.09;;;22.14;42.11
70968;BME280;58629;48.808;8.820;2023-06-04T08:35:58;97222.78;;;22.38;41.33
70968;BME280;58629;48.808;8.820;2023-06-04T08:38:23;97229.69;;;22.44;40.52
70968;BME280;58629;48.808;8.820;2023-06-04T08:40:52;97217.69;;;22.51;38.15
70968;BME280;58629;48.808;8.820;2023-06-04T08:43:18;97226.88;;;22.65;39.72
70968;BME280;58629;48.808;8.820;2023-06-04T08:45:49;97223.53;;;22.86;38.15
70968;BME280;58629;48.808;8.820;2023-06-04T08:48:14;97225.78;;;22.99;38.12
70968;BME280;58629;48.808;8.820;2023-06-04T08:50:42;97224.63;;;23.22;38.77
70968;BME280;58629;48.808;8.820;2023-06-04T08:53:11;97233.72;;;23.24;37.22
70968;BME280;58629;48.808;8.820;2023-06-04T08:55:37;97228.31;;;23.19;37.20
70968;BME280;58629;48.808;8.820;2023-06-04T08:58:05;97229.09;;;23.36;36.87
70968;BME280;58629;48.808;8.820;2023-06-04T09:00:33;97235.53;;;23.55;36.12
70968;BME280;58629;48.808;8.820;2023-06-04T09:03:02;97233.81;;;23.58;36.73
70968;BME280;58629;48.808;8.820;2023-06-04T09:05:29;97235.06;;;23.68;35.45
70968;BME280;58629;48.808;8.820;2023-06-04T09:07:55;97244.91;;;23.82;36.60
70968;BME280;58629;48.808;8.820;2023-06-04T09:10:24;97240.25;;;24.16;36.77
70968;BME280;58629;48.808;8.820;2023-06-04T09:12:51;97242.91;;;24.49;37.06
70968;BME280;58629;48.808;8.820;2023-06-04T09:15:17;97247.28;;;24.63;35.66
70968;BME280;58629;48.808;8.820;2023-06-04T09:17:43;97261.84;;;24.49;35.61
70968;BME280;58629;48.808;8.820;2023-06-04T09:20:18;97246.06;;;24.58;34.71
70968;BME280;58629;48.808;8.820;2023-06-04T09:22:44;97258.41;;;24.48;35.23
70968;BME280;58629;48.808;8.820;2023-06-04T09:25:19;97251.28;;;24.45;33.98
70968;BME280;58629;48.808;8.820;2023-06-04T09:27:44;97259.38;;;24.51;33.87
70968;BME280;58629;48.808;8.820;2023-06-04T09:30:10;97268.53;;;24.42;33.27
70968;BME280;58629;48.808;8.820;2023-06-04T09:32:35;97262.59;;;24.33;33.54
70968;BME280;58629;48.808;8.820;2023-06-04T09:35:15;97260.13;;;24.46;33.33
70968;BME280;58629;48.808;8.820;2023-06-04T09:37:41;97263.56;;;24.52;34.32
70968;BME280;58629;48.808;8.820;2023-06-04T09:40:10;97254.75;;;24.40;34.08
70968;BME280;58629;48.808;8.820;2023-06-04T09:42:43;97257.13;;;24.60;33.72
70968;BME280;58629;48.808;8.820;2023-06-04T09:45:09;97245.56;;;24.65;33.75
70968;BME280;58629;48.808;8.820;2023-06-04T09:47:42;97252.63;;;25.02;32.97
70968;BME280;58629;48.808;8.820;2023-06-04T09:50:08;97248.63;;;25.08;34.21
70968;BME280;58629;48.808;8.820;2023-06-04T09:52:33;97256.97;;;25.21;33.73
70968;BME280;58629;48.808;8.820;2023-06-04T09:54:59;97261.22;;;25.00;33.20
70968;BME280;58629;48.808;8.820;2023-06-04T09:57:25;97251.25;;;25.30;34.26
70968;BME280;58629;48.808;8.820;2023-06-04T09:59:52;97245.28;;;25.43;33.17
70968;BME280;58629;48.808;8.820;2023-06-04T10:02:20;97250.63;;;25.54;32.90
70968;BME280;58629;48.808;8.820;2023-06-04T10:04:55;97252.53;;;25.64;31.88
70968;BME280;58629;48.808;8.820;2023-06-04T10:07:23;97253.03;;;25.98;33.37
70968;BME280;58629;48.808;8.820;2023-06-04T10:09:50;97248.97;;;26.16;33.28
70968;BME280;58629;48.808;8.820;2023-06-04T10:12:16;97252.53;;;26.00;31.59
70968;BME280;58629;48.808;8.820;2023-06-04T10:14:52;97250.38;;;25.93;30.04
70968;BME280;58629;48.808;8.820;2023-06-04T10:17:21;97250.00;;;26.07;32.42
70968;BME280;58629;48.808;8.820;2023-06-04T10:19:47;97244.16;;;25.98;31.80
70968;BME280;58629;48.808;8.820;2023-06-04T10:22:14;97240.44;;;26.01;31.44
70968;BME280;58629;48.808;8.820;2023-06-04T10:24:39;97246.47;;;26.18;31.38
70968;BME280;58629;48.808;8.820;2023-06-04T10:27:05;97244.03;;;26.14;30.35
70968;BME280;58629;48.808;8.820;2023-06-04T10:29:36;97245.31;;;26.61;30.48
70968;BME280;58629;48.808;8.820;2023-06-04T10:32:01;97248.31;;;26.82;30.65
70968;BME280;58629;48.808;8.820;2023-06-04T10:34:27;97243.78;;;26.42;28.50
70968;BME280;58629;48.808;8.820;2023-06-04T10:36:53;97236.19;;;26.35;30.27
70968;BME280;58629;48.808;8.820;2023-06-04T10:39:25;97237.63;;;26.41;30.47
70968;BME280;58629;48.808;8.820;2023-06-04T10:41:58;97233.31;;;26.76;31.03
70968;BME280;58629;48.808;8.820;2023-06-04T10:44:24;97231.88;;;26.69;29.68
70968;BME280;58629;48.808;8.820;2023-06-04T10:46:49;97228.78;;;26.59;29.47
70968;BME280;58629;48.808;8.820;2023-06-04T10:49:26;97233.41;;;26.89;29.60
70968;BME280;58629;48.808;8.820;2023-06-04T10:51:52;97229.16;;;26.93;29.82
70968;BME280;58629;48.808;8.820;2023-06-04T10:54:24;97226.88;;;27.16;30.45
70968;BME280;58629;48.808;8.820;2023-06-04T10:56:52;97225.00;;;27.29;28.87
70968;BME280;58629;48.808;8.820;2023-06-04T10:59:21;97222.97;;;27.67;29.19
70968;BME280;58629;48.808;8.820;2023-06-04T11:01:48;97222.03;;;27.96;29.45
70968;BME280;58629;48.808;8.820;2023-06-04T11:04:24;97225.50;;;27.97;28.69
70968;BME280;58629;48.808;8.820;2023-06-04T11:07:00;97231.50;;;28.08;27.46
70968;BME280;58629;48.808;8.820;2023-06-04T11:09:27;97223.13;;;28.06;28.87
70968;BME280;58629;48.808;8.820;2023-06-04T11:11:59;97225.84;;;28.06;28.50
70968;BME280;58629;48.808;8.820;2023-06-04T11:14:25;97225.75;;;27.93;28.23
70968;BME280;58629;48.808;8.820;2023-06-04T11:16:51;97230.66;;;27.82;27.34
70968;BME280;58629;48.808;8.820;2023-06-04T11:19:17;97217.09;;;27.63;28.15
70968;BME280;58629;48.808;8.820;2023-06-04T11:21:43;97226.69;;;27.83;29.50
70968;BME280;58629;48.808;8.820;2023-06-04T11:24:09;97218.81;;;27.79;27.95
70968;BME280;58629;48.808;8.820;2023-06-04T11:26:35;97215.41;;;27.92;27.67
70968;BME280;58629;48.808;8.820;2023-06-04T11:29:06;97215.16;;;27.77;27.28
70968;BME280;58629;48.808;8.820;2023-06-04T11:31:42;97209.75;;;27.58;28.81
70968;BME280;58629;48.808;8.820;2023-06-04T11:34:08;97217.09;;;27.63;28.78
70968;BME280;58629;48.808;8.820;2023-06-04T11:36:34;97211.06;;;27.52;28.84
70968;BME280;58629;48.808;8.820;2023-06-04T11:39:03;97212.28;;;27.19;29.15
70968;BME280;58629;48.808;8.820;2023-06-04T11:41:32;97213.38;;;27.48;28.79
70968;BME280;58629;48.808;8.820;2023-06-04T11:44:04;97201.78;;;27.47;29.66
70968;BME280;58629;48.808;8.820;2023-06-04T11:46:32;97215.88;;;28.09;28.41
70968;BME280;58629;48.808;8.820;2023-06-04T11:48:58;97209.31;;;27.54;28.61
70968;BME280;58629;48.808;8.820;2023-06-04T11:51:23;97214.09;;;27.67;30.33
70968;BME280;58629;48.808;8.820;2023-06-04T11:53:49;97211.78;;;28.02;29.62
70968;BME280;58629;48.808;8.820;2023-06-04T11:56:15;97216.63;;;27.78;29.94
70968;BME280;58629;48.808;8.820;2023-06-04T11:58:41;97214.84;;;27.49;29.65
70968;BME280;58629;48.808;8.820;2023-06-04T12:01:07;97216.31;;;27.31;29.34
70968;BME280;58629;48.808;8.820;2023-06-04T12:03:37;97210.25;;;27.88;29.64
70968;BME280;58629;48.808;8.820;2023-06-04T12:06:17;97212.88;;;28.12;27.14
70968;BME280;58629;48.808;8.820;2023-06-04T12:11:32;97205.56;;;27.89;26.83
70968;BME280;58629;48.808;8.820;2023-06-04T12:13:59;97203.25;;;28.38;27.85
70968;BME280;58629;48.808;8.820;2023-06-04T12:16:25;97191.59;;;27.48;27.10
70968;BME280;58629;48.808;8.820;2023-06-04T12:18:51;97198.75;;;27.82;28.01
70968;BME280;58629;48.808;8.820;2023-06-04T12:21:21;97197.78;;;27.80;29.08
70968;BME280;58629;48.808;8.820;2023-06-04T12:23:52;97194.91;;;27.91;27.24
70968;BME280;58629;48.808;8.820;2023-06-04T12:26:23;97191.50;;;28.29;26.01
70968;BME280;58629;48.808;8.820;2023-06-04T12:29:01;97192.75;;;27.71;26.68
70968;BME280;58629;48.808;8.820;2023-06-04T12:31:27;97194.78;;;26.77;30.07
70968;BME280;58629;48.808;8.820;2023-06-04T12:34:00;97189.81;;;27.69;28.50
70968;BME280;58629;48.808;8.820;2023-06-04T12:36:26;97193.88;;;27.75;27.34
70968;BME280;58629;48.808;8.820;2023-06-04T12:38:51;97197.69;;;27.85;27.50
70968;BME280;58629;48.808;8.820;2023-06-04T12:41:16;97198.00;;;28.26;26.82
70968;BME280;58629;48.808;8.820;2023-06-04T12:43:42;97199.47;;;28.54;25.86
70968;BME280;58629;48.808;8.820;2023-06-04T12:46:07;97204.09;;;28.46;25.90
70968;BME280;58629;48.808;8.820;2023-06-04T12:48:32;97199.34;;;28.33;26.41
70968;BME280;58629;48.808;8.820;2023-06-04T12:50:58;97201.69;;;28.42;25.33
70968;BME280;58629;48.808;8.820;2023-06-04T12:53:23;97200.19;;;28.41;25.79
70968;BME280;58629;48.808;8.820;2023-06-04T12:55:49;97202.09;;;28.85;25.51
70968;BME280;58629;48.808;8.820;2023-06-04T12:58:14;97191.75;;;28.58;25.62
70968;BME280;58629;48.808;8.820;2023-06-04T13:00:39;97191.13;;;29.25;26.13